Time;durP1;ratioP1;P1;durP2;ratioP2;P2;SDS_P1;SDS_P2;PMS_P1;PMS_P2;Temp;Humidity;BMP_temperature;BMP_pressure;BME280_temperature;BME280_humidity;BME280_pressure;Samples;Min_cycle;Max_cycle;Signal;HPM_P1;HPM_P2
2022/05/06 00:00:07;;;;;;;3.98;2.45;;;;;;;7.78;37.30;100597.86;1715887;83;21057;-76
2022/05/06 00:02:34;;;;;;;4.67;2.70;;;;;;;7.78;37.41;100600.48;1715441;83;21617;-76
2022/05/06 00:05:01;;;;;;;3.05;2.58;;;;;;;7.77;37.50;100604.42;1715474;83;21150;-76
2022/05/06 00:07:28;;;;;;;5.40;2.80;;;;;;;7.77;37.54;100600.04;1715380;83;21058;-76
2022/05/06 00:09:55;;;;;;;4.17;2.33;;;;;;;7.75;37.71;100598.30;1715391;83;22311;-76
2022/05/06 00:12:23;;;;;;;4.35;2.92;;;;;;;7.72;37.57;100602.27;1715832;83;20979;-76
2022/05/06 00:14:50;;;;;;;6.08;2.80;;;;;;;7.71;37.67;100596.13;1715492;83;21667;-75
2022/05/06 00:17:18;;;;;;;3.70;2.52;;;;;;;7.69;37.66;100599.66;1715443;83;21196;-76
2022/05/06 00:19:45;;;;;;;3.85;2.62;;;;;;;7.67;37.67;100611.45;1715582;83;21027;-75
2022/05/06 00:22:12;;;;;;;6.28;3.00;;;;;;;7.66;37.79;100611.00;1722976;80;21156;-76
2022/05/06 00:24:39;;;;;;;6.87;2.98;;;;;;;7.66;37.79;100617.55;1725178;82;21011;-76
2022/05/06 00:27:05;;;;;;;3.10;2.80;;;;;;;7.66;37.85;100616.25;1725039;83;21062;-76
2022/05/06 00:29:33;;;;;;;3.52;2.80;;;;;;;7.66;38.17;100614.08;1712722;83;21589;-77
2022/05/06 00:32:02;;;;;;;9.98;2.58;;;;;;;7.65;38.09;100618.88;1743741;82;21557;-76
2022/05/06 00:34:29;;;;;;;5.33;2.65;;;;;;;7.63;38.18;100618.88;1743632;82;20996;-75
2022/05/06 00:36:56;;;;;;;4.47;2.65;;;;;;;7.62;38.11;100617.16;1743537;82;21043;-75
2022/05/06 00:39:23;;;;;;;3.55;2.87;;;;;;;7.61;38.25;100614.09;1743474;82;21071;-76
2022/05/06 00:41:54;;;;;;;5.33;2.50;;;;;;;7.60;38.16;100618.91;1743418;82;21201;-80
2022/05/06 00:44:22;;;;;;;6.08;3.10;;;;;;;7.58;38.38;100620.64;1743431;82;21052;-80
2022/05/06 00:46:48;;;;;;;4.17;2.90;;;;;;;7.55;38.41;100612.38;1722757;83;21069;-79
2022/05/06 00:49:15;;;;;;;5.45;3.17;;;;;;;7.52;38.79;100611.08;1723049;83;21083;-79
2022/05/06 00:51:42;;;;;;;9.95;3.00;;;;;;;7.48;38.53;100615.02;1722762;83;21003;-76
2022/05/06 00:54:08;;;;;;;8.73;3.60;;;;;;;7.47;38.53;100617.23;1697157;83;21219;-76
2022/05/06 00:56:35;;;;;;;6.08;3.40;;;;;;;7.44;38.60;100607.17;1722904;83;21615;-74
2022/05/06 00:59:01;;;;;;;6.05;3.08;;;;;;;7.44;38.71;100608.48;1722412;83;21069;-74
2022/05/06 01:01:29;;;;;;;4.20;3.20;;;;;;;7.41;38.80;100603.28;1722885;82;21062;-76
2022/05/06 01:03:56;;;;;;;6.65;3.15;;;;;;;7.38;38.74;100600.67;1722809;83;21117;-76
2022/05/06 01:06:23;;;;;;;7.75;3.40;;;;;;;7.36;38.74;100606.36;1722732;83;21114;-76
2022/05/06 01:08:52;;;;;;;5.03;3.35;;;;;;;7.35;38.83;100598.06;1723121;83;21077;-76
2022/05/06 01:11:18;;;;;;;6.35;3.33;;;;;;;7.34;39.10;100605.47;1722914;83;21102;-76
2022/05/06 01:13:46;;;;;;;5.60;3.10;;;;;;;7.33;39.30;100605.06;1722839;83;21118;-76
2022/05/06 01:16:17;;;;;;;5.92;2.87;;;;;;;7.30;39.39;100608.99;1721758;83;21120;-73
2022/05/06 01:18:47;;;;;;;5.80;3.58;;;;;;;7.29;39.39;100606.37;1721018;83;21082;-74
2022/05/06 01:21:23;;;;;;;4.67;2.98;;;;;;;7.25;39.30;100605.52;1722699;83;21098;-73
2022/05/06 01:23:50;;;;;;;3.22;2.92;;;;;;;7.22;39.45;100599.84;1724423;83;21015;-74
2022/05/06 01:26:16;;;;;;;5.00;2.80;;;;;;;7.21;39.52;100606.39;1728690;83;21146;-73
2022/05/06 01:28:43;;;;;;;5.12;2.80;;;;;;;7.20;39.53;100605.98;1728075;82;21109;-74
2022/05/06 01:31:15;;;;;;;8.73;3.40;;;;;;;7.18;39.74;100609.91;1712842;82;21546;-74
2022/05/06 01:33:42;;;;;;;5.58;2.92;;;;;;;7.17;39.79;100613.83;1728356;83;21495;-74
2022/05/06 01:36:09;;;;;;;6.42;2.90;;;;;;;7.15;39.88;100615.59;1728285;83;21020;-74
2022/05/06 01:38:46;;;;;;;6.42;3.50;;;;;;;7.13;40.25;100610.77;1728593;82;21035;-74
2022/05/06 01:41:24;;;;;;;10.60;4.03;;;;;;;7.10;40.57;100608.20;1759874;81;21066;-74
2022/05/06 01:43:59;;;;;;;9.35;4.85;;;;;;;7.04;40.48;100608.64;1756486;81;21807;-75
2022/05/06 01:46:26;;;;;;;9.63;5.17;;;;;;;7.02;40.92;100612.12;1759843;81;21015;-75
2022/05/06 01:48:55;;;;;;;7.87;4.80;;;;;;;6.97;41.24;100614.75;1759348;81;21070;-75
2022/05/06 01:51:23;;;;;;;5.15;3.85;;;;;;;6.94;41.05;100616.05;1736489;81;20996;-75
2022/05/06 01:53:51;;;;;;;5.17;3.90;;;;;;;6.91;41.42;100616.09;1760039;81;21137;-75
2022/05/06 01:56:19;;;;;;;7.50;3.80;;;;;;;6.90;41.32;100618.26;1736618;81;21143;-75
2022/05/06 01:58:47;;;;;;;8.68;3.62;;;;;;;6.88;41.61;100623.94;1759927;81;20999;-75
2022/05/06 02:01:14;;;;;;;8.50;3.30;;;;;;;6.85;42.02;100626.11;1760347;81;21059;-74
2022/05/06 02:06:29;;;;;;;6.70;3.35;;;;;;;6.77;42.89;100626.99;1759976;81;21094;-74
2022/05/06 02:08:58;;;;;;;4.12;3.55;;;;;;;6.72;42.97;100630.05;1758574;80;21779;-74
2022/05/06 02:11:26;;;;;;;7.20;3.50;;;;;;;6.66;43.31;100627.88;1758707;81;21399;-74
2022/05/06 02:13:55;;;;;;;5.22;3.47;;;;;;;6.61;43.66;100627.02;1736672;81;21038;-74
2022/05/06 02:16:30;;;;;;;8.13;3.98;;;;;;;6.56;43.80;100623.53;1758354;81;21053;-74
2022/05/06 02:19:15;;;;;;;7.40;3.60;;;;;;;6.52;43.87;100621.77;1756505;81;21023;-74
2022/05/06 02:21:48;;;;;;;8.48;3.80;;;;;;;6.49;44.15;100621.80;1695596;81;21541;-75
2022/05/06 02:24:16;;;;;;;11.83;4.37;;;;;;;6.46;44.33;100625.27;1751199;81;21105;-74
2022/05/06 02:26:57;;;;;;;19.60;8.18;;;;;;;6.44;44.64;100624.41;1751627;81;21063;-74
2022/05/06 02:29:25;;;;;;;23.62;10.90;;;;;;;6.42;44.64;100629.19;1754428;81;21064;-75
2022/05/06 02:34:38;;;;;;;28.02;13.68;;;;;;;6.40;44.97;100631.80;1754106;81;21655;-75
2022/05/06 02:37:07;;;;;;;27.37;14.68;;;;;;;6.38;45.24;100637.46;1753253;81;21003;-75
2022/05/06 02:39:36;;;;;;;25.10;13.60;;;;;;;6.39;45.41;100637.02;1747527;81;21476;-74
2022/05/06 02:42:08;;;;;;;24.47;12.58;;;;;;;6.39;45.21;100635.71;1731459;82;21113;-75
2022/05/06 02:44:36;;;;;;;26.80;13.55;;;;;;;6.41;45.53;100634.00;1732180;82;21098;-74
2022/05/06 02:47:03;;;;;;;23.60;14.38;;;;;;;6.42;45.36;100647.48;1732090;82;21125;-75
2022/05/06 02:49:32;;;;;;;29.05;14.63;;;;;;;6.44;45.63;100644.42;1732463;82;21458;-74
2022/05/06 02:51:59;;;;;;;32.60;15.32;;;;;;;6.45;45.87;100648.35;1731956;82;21006;-74
2022/05/06 02:54:26;;;;;;;31.62;16.62;;;;;;;6.47;45.70;100640.52;1732121;82;21038;-74
2022/05/06 02:56:56;;;;;;;40.80;18.32;;;;;;;6.49;46.03;100638.80;1732421;82;21073;-74
2022/05/06 02:59:23;;;;;;;49.27;20.50;;;;;;;6.49;46.08;100640.96;1732252;82;21545;-75
2022/05/06 03:01:51;;;;;;;34.25;15.43;;;;;;;6.53;45.83;100634.43;1732170;82;21034;-75
2022/05/06 03:04:18;;;;;;;26.17;11.83;;;;;;;6.56;46.03;100632.68;1732470;82;21014;-75
2022/05/06 03:06:45;;;;;;;16.60;7.83;;;;;;;6.61;46.04;100631.38;1732444;82;21157;-74
2022/05/06 03:09:13;;;;;;;11.33;5.83;;;;;;;6.63;45.62;100634.41;1732465;82;21348;-75
2022/05/06 03:11:41;;;;;;;8.15;5.03;;;;;;;6.67;45.59;100637.48;1703360;82;21160;-74
2022/05/06 03:14:09;;;;;;;6.90;4.40;;;;;;;6.72;45.62;100639.20;1731580;82;21034;-74
2022/05/06 03:16:38;;;;;;;9.33;4.75;;;;;;;6.75;45.39;100633.98;1731206;82;21493;-75
2022/05/06 03:19:04;;;;;;;8.23;5.03;;;;;;;6.79;45.61;100638.32;1732337;82;21184;-75
2022/05/06 03:21:31;;;;;;;7.95;4.15;;;;;;;6.81;45.32;100640.52;1732352;82;20999;-75
2022/05/06 03:23:58;;;;;;;9.08;3.85;;;;;;;6.82;45.61;100643.11;1732810;82;21117;-75
2022/05/06 03:26:25;;;;;;;8.00;4.30;;;;;;;6.85;45.55;100644.42;1734066;80;20998;-75
2022/05/06 03:28:57;;;;;;;8.65;4.28;;;;;;;6.88;45.58;100644.86;1728156;82;21694;-75
2022/05/06 03:31:26;;;;;;;7.28;3.90;;;;;;;6.91;45.20;100650.52;1725895;83;21158;-75
2022/05/06 03:34:01;;;;;;;4.72;3.40;;;;;;;6.93;44.97;100647.04;1725332;83;21058;-75
2022/05/06 03:36:33;;;;;;;9.08;3.95;;;;;;;6.97;45.17;100654.44;1725497;83;21123;-75
2022/05/06 03:39:03;;;;;;;5.53;3.98;;;;;;;6.98;45.49;100650.52;1725435;82;21039;-75
2022/05/06 03:41:32;;;;;;;6.00;3.92;;;;;;;7.01;45.40;100655.75;1725767;83;21035;-75
2022/05/06 03:43:59;;;;;;;10.13;3.95;;;;;;;7.04;44.98;100659.67;1709045;83;21114;-75
2022/05/06 03:46:26;;;;;;;8.90;4.22;;;;;;;7.09;45.00;100662.70;1725716;83;21073;-75
2022/05/06 03:48:53;;;;;;;6.08;3.92;;;;;;;7.13;44.98;100669.66;1725739;83;21511;-76
2022/05/06 03:51:21;;;;;;;9.45;4.42;;;;;;;7.16;44.68;100674.48;1725777;83;21435;-75
2022/05/06 03:53:54;;;;;;;9.33;5.30;;;;;;;7.22;44.48;100670.97;1725322;83;21031;-75
2022/05/06 03:56:22;;;;;;;5.75;4.33;;;;;;;7.28;44.54;100663.52;1725742;83;21008;-75
2022/05/06 03:58:50;;;;;;;11.43;4.28;;;;;;;7.32;44.41;100662.66;1726163;82;21396;-75
2022/05/06 04:01:19;;;;;;;7.65;4.35;;;;;;;7.36;44.18;100668.30;1725712;83;21102;-76
2022/05/06 04:03:47;;;;;;;6.47;4.45;;;;;;;7.42;44.41;100677.46;1725134;82;21054;-75
2022/05/06 04:06:15;;;;;;;8.23;5.25;;;;;;;7.47;44.52;100671.77;1710171;83;21004;-75
2022/05/06 04:08:45;;;;;;;12.28;5.37;;;;;;;7.53;44.34;100680.03;1726438;82;21006;-75
2022/05/06 04:11:13;;;;;;;7.28;4.92;;;;;;;7.59;44.32;100676.09;1725697;82;21067;-75
2022/05/06 04:13:42;;;;;;;8.80;4.67;;;;;;;7.65;44.36;100680.01;1725575;83;21991;-74
2022/05/06 04:16:09;;;;;;;9.95;4.55;;;;;;;7.74;44.35;100679.09;1725580;83;20988;-75
2022/05/06 04:18:35;;;;;;;5.80;4.62;;;;;;;7.82;44.32;100677.31;1725952;83;21058;-75
2022/05/06 04:23:49;;;;;;;7.03;4.08;;;;;;;8.04;44.36;100674.59;1725618;83;21494;-75
2022/05/06 04:26:16;;;;;;;13.25;4.65;;;;;;;8.14;43.92;100671.03;1743821;81;21150;-75
2022/05/06 04:28:44;;;;;;;13.78;4.58;;;;;;;8.25;43.65;100669.64;1722853;83;21601;-75
2022/05/06 04:31:11;;;;;;;14.18;4.47;;;;;;;8.34;43.40;100673.08;1724006;83;21074;-75
2022/05/06 04:33:40;;;;;;;9.58;4.00;;;;;;;8.44;43.01;100672.61;1724072;83;21038;-75
2022/05/06 04:36:09;;;;;;;4.60;3.50;;;;;;;8.53;43.17;100673.84;1732739;82;21085;-75
2022/05/06 04:38:36;;;;;;;8.35;3.90;;;;;;;8.63;42.81;100675.09;1732605;82;21122;-74
2022/05/06 04:41:04;;;;;;;8.75;4.17;;;;;;;8.72;42.42;100671.06;1727455;81;21050;-75
2022/05/06 04:43:32;;;;;;;7.42;3.85;;;;;;;8.81;42.16;100676.25;1724646;83;21030;-75
2022/05/06 04:46:00;;;;;;;8.18;3.50;;;;;;;8.90;41.77;100673.98;1724854;83;20995;-75
2022/05/06 04:48:29;;;;;;;7.62;2.98;;;;;;;8.99;41.50;100683.52;1724439;83;21058;-75
2022/05/06 04:50:57;;;;;;;17.55;3.67;;;;;;;9.07;41.42;100684.31;1699553;83;21138;-75
2022/05/06 04:53:24;;;;;;;10.40;3.70;;;;;;;9.16;41.18;100686.83;1724312;83;21098;-75
2022/05/06 04:55:51;;;;;;;4.50;3.27;;;;;;;9.25;41.17;100684.13;1724410;83;21296;-74
2022/05/06 04:58:19;;;;;;;5.80;3.15;;;;;;;9.35;40.83;100691.93;1724679;83;21126;-75
2022/05/06 05:00:47;;;;;;;6.12;3.12;;;;;;;9.43;40.99;100684.80;1724526;83;21003;-75
2022/05/06 05:03:13;;;;;;;8.40;2.80;;;;;;;9.52;40.82;100686.03;1700018;83;21496;-75
2022/05/06 05:05:42;;;;;;;6.30;3.08;;;;;;;9.62;40.75;100682.86;1724742;83;21058;-75
2022/05/06 05:08:09;;;;;;;6.03;3.08;;;;;;;9.70;40.56;100684.06;1724769;83;21065;-74
2022/05/06 05:10:38;;;;;;;4.58;3.08;;;;;;;9.80;40.36;100679.11;1724309;83;21117;-75
2022/05/06 05:13:07;;;;;;;5.00;3.25;;;;;;;9.90;39.93;100688.65;1724620;83;21514;-75
2022/05/06 05:15:35;;;;;;;5.95;2.95;;;;;;;9.98;39.75;100681.50;1700180;83;23133;-75
2022/05/06 05:18:03;;;;;;;6.28;3.17;;;;;;;10.10;40.00;100686.17;1724449;83;21561;-75
2022/05/06 05:20:32;;;;;;;5.37;2.98;;;;;;;10.22;39.65;100688.63;1724345;83;21093;-75
2022/05/06 05:23:00;;;;;;;6.85;3.00;;;;;;;10.34;39.53;100693.76;1727909;82;21007;-75
2022/05/06 05:25:27;;;;;;;7.35;2.95;;;;;;;10.45;39.03;100693.58;1730425;82;21012;-75
2022/05/06 05:27:54;;;;;;;5.67;2.72;;;;;;;10.56;38.37;100685.55;1730663;82;21129;-75
2022/05/06 05:30:26;;;;;;;8.55;2.85;;;;;;;10.66;39.07;100690.19;1728709;82;21111;-74
2022/05/06 05:32:53;;;;;;;4.92;2.33;;;;;;;10.77;38.65;100686.94;1730332;82;20983;-75
2022/05/06 05:35:19;;;;;;;4.75;2.33;;;;;;;10.87;38.59;100695.56;1730380;82;21588;-75
2022/05/06 05:37:48;;;;;;;11.60;2.42;;;;;;;10.96;38.16;100691.01;1730398;82;21106;-75
2022/05/06 05:40:15;;;;;;;6.75;2.70;;;;;;;11.08;38.05;100700.46;1733849;81;21962;-75
2022/05/06 05:42:43;;;;;;;3.52;2.30;;;;;;;11.17;37.46;100695.93;1754801;81;21647;-76
2022/05/06 05:50:44;;;;;;;7.97;2.55;;;;;;;11.47;37.55;100701.07;1754930;81;21085;-75
2022/05/06 05:53:12;;;;;;;5.33;2.42;;;;;;;11.58;37.48;100691.16;1731229;81;22491;-76
2022/05/06 05:55:39;;;;;;;9.85;2.70;;;;;;;11.69;36.62;100689.65;1731519;81;20995;-75
2022/05/06 05:58:08;;;;;;;5.37;2.17;;;;;;;11.79;36.64;100687.23;1754481;81;21487;-75
2022/05/06 06:00:36;;;;;;;3.42;2.42;;;;;;;11.92;36.67;100692.27;1754794;81;21165;-76
2022/05/06 06:03:04;;;;;;;3.55;2.62;;;;;;;12.03;36.16;100699.05;1754815;81;21070;-76
2022/05/06 06:05:33;;;;;;;5.37;2.25;;;;;;;12.15;35.86;100695.28;1754540;81;21761;-75
2022/05/06 06:07:59;;;;;;;4.85;2.35;;;;;;;12.24;35.26;100693.77;1755999;81;21502;-75
2022/05/06 06:10:27;;;;;;;4.03;2.20;;;;;;;12.32;35.47;100686.98;1754608;81;21031;-75
2022/05/06 06:12:54;;;;;;;16.80;2.58;;;;;;;12.43;35.42;100689.39;1754727;81;21177;-74
2022/05/06 06:15:21;;;;;;;6.17;2.40;;;;;;;12.54;35.12;100686.05;1754970;81;21576;-74
2022/05/06 06:17:47;;;;;;;5.05;2.40;;;;;;;12.64;34.88;100682.28;1754894;81;21474;-74
2022/05/06 06:20:14;;;;;;;6.90;2.52;;;;;;;12.74;35.17;100679.39;1755065;81;21059;-75
2022/05/06 06:22:46;;;;;;;9.20;2.50;;;;;;;12.83;35.23;100680.50;1754778;81;21035;-75
2022/05/06 06:25:14;;;;;;;6.62;2.22;;;;;;;12.93;35.14;100689.92;1753849;81;21102;-75
2022/05/06 06:27:41;;;;;;;2.55;2.30;;;;;;;13.04;34.56;100688.77;1724699;83;21043;-76
2022/05/06 06:30:12;;;;;;;3.05;1.90;;;;;;;13.14;33.78;100694.23;1724764;83;21188;-75
2022/05/06 06:32:39;;;;;;;7.90;2.10;;;;;;;13.22;33.12;100688.75;1724992;83;21011;-76
2022/05/06 06:35:07;;;;;;;2.67;2.10;;;;;;;13.30;32.95;100689.42;1724620;82;21031;-75
2022/05/06 06:37:39;;;;;;;7.70;1.95;;;;;;;13.38;33.02;100683.04;1724664;83;21084;-75
2022/05/06 06:40:08;;;;;;;6.37;2.00;;;;;;;13.50;33.27;100683.58;1724559;83;21002;-75
2022/05/06 06:42:34;;;;;;;3.65;1.72;;;;;;;13.62;33.19;100680.62;1706613;83;21120;-75
2022/05/06 06:45:04;;;;;;;2.50;1.75;;;;;;;13.73;33.25;100688.23;1705682;83;21035;-75
2022/05/06 06:47:45;;;;;;;5.10;2.00;;;;;;;13.85;32.53;100687.89;1704922;83;21019;-75
2022/05/06 06:50:16;;;;;;;6.28;2.05;;;;;;;13.96;32.22;100686.23;1705979;83;21039;-74
2022/05/06 06:52:45;;;;;;;3.77;1.20;;;;;;;14.06;31.79;100679.75;1704586;83;21078;-75
2022/05/06 06:55:12;;;;;;;1.75;1.45;;;;;;;14.15;31.35;100688.33;1706794;84;21097;-74
2022/05/06 06:57:39;;;;;;;7.72;1.87;;;;;;;14.24;28.97;100685.38;1706661;84;21113;-75
2022/05/06 07:00:08;;;;;;;3.75;1.47;;;;;;;14.21;29.26;100688.16;1707060;84;21018;-74
2022/05/06 07:02:36;;;;;;;3.65;1.52;;;;;;;14.23;30.12;100695.11;1706656;83;21028;-75
2022/05/06 07:05:04;;;;;;;3.40;1.77;;;;;;;14.32;29.80;100691.30;1706492;84;21129;-75
2022/05/06 07:13:01;;;;;;;3.35;1.57;;;;;;;14.46;29.61;100681.63;1706310;84;21027;-74
2022/05/06 07:15:29;;;;;;;5.65;1.92;;;;;;;14.59;29.58;100695.35;1706587;83;21051;-75
2022/05/06 07:17:56;;;;;;;2.12;1.27;;;;;;;14.60;27.70;100687.36;1706828;83;21608;-73
2022/05/06 07:20:23;;;;;;;1.55;1.45;;;;;;;14.61;28.43;100679.84;1706721;83;21133;-75
2022/05/06 07:22:50;;;;;;;4.67;1.42;;;;;;;14.68;28.08;100685.80;1706527;84;21063;-75
2022/05/06 07:25:17;;;;;;;6.33;1.47;;;;;;;14.78;28.49;100683.25;1706602;84;21137;-75
2022/05/06 07:27:44;;;;;;;3.72;1.40;;;;;;;14.92;27.53;100684.56;1706657;84;21134;-75
2022/05/06 07:30:11;;;;;;;8.08;1.42;;;;;;;15.04;26.93;100685.47;1706675;84;21628;-75
2022/05/06 07:32:38;;;;;;;5.90;1.50;;;;;;;15.14;27.07;100681.57;1774968;80;21154;-74
2022/05/06 07:35:06;;;;;;;4.30;1.75;;;;;;;15.19;26.19;100684.07;1788433;80;21079;-75
2022/05/06 07:37:34;;;;;;;7.80;1.95;;;;;;;15.13;27.01;100683.84;1788147;80;21005;-75
2022/05/06 07:40:03;;;;;;;4.50;1.55;;;;;;;15.19;27.81;100686.25;1788119;80;21060;-75
2022/05/06 07:42:31;;;;;;;5.70;1.60;;;;;;;15.31;27.54;100682.77;1787509;80;22317;-75
2022/05/06 07:45:00;;;;;;;1.82;1.62;;;;;;;15.42;27.57;100685.91;1788443;80;21973;-75
2022/05/06 07:47:27;;;;;;;6.97;1.50;;;;;;;15.52;26.22;100683.33;1788047;80;21107;-75
2022/05/06 07:49:54;;;;;;;2.35;1.57;;;;;;;15.45;25.21;100680.50;1788257;80;21452;-75
2022/05/06 07:52:21;;;;;;;7.28;1.72;;;;;;;15.28;26.05;100681.11;1788250;80;21099;-76
2022/05/06 07:54:47;;;;;;;3.77;1.72;;;;;;;15.24;26.23;100685.63;1788161;80;21095;-75
2022/05/06 07:57:14;;;;;;;5.90;1.92;;;;;;;15.31;26.06;100682.77;1788375;80;21099;-75
2022/05/06 07:59:41;;;;;;;1.85;1.67;;;;;;;15.38;25.90;100682.95;1788264;80;21037;-76
2022/05/06 08:04:52;;;;;;;2.90;1.72;;;;;;;15.47;25.75;100681.30;1788237;80;21080;-75
2022/05/06 08:07:20;;;;;;;3.52;1.45;;;;;;;15.56;25.30;100675.65;1788157;80;20997;-76
2022/05/06 08:09:47;;;;;;;5.37;1.50;;;;;;;15.68;25.33;100673.47;1788102;80;22267;-75
2022/05/06 08:12:13;;;;;;;2.65;1.67;;;;;;;15.78;25.10;100669.58;1787979;80;21460;-75
2022/05/06 08:14:41;;;;;;;5.80;1.80;;;;;;;15.85;25.21;100671.55;1788589;80;21079;-75
2022/05/06 08:17:08;;;;;;;2.42;1.67;;;;;;;15.92;25.34;100672.59;1788080;80;21068;-75
2022/05/06 08:19:35;;;;;;;3.58;2.02;;;;;;;16.06;25.43;100672.05;1788377;80;21044;-76
2022/05/06 08:22:02;;;;;;;2.27;2.08;;;;;;;16.21;25.41;100667.94;1752351;80;21835;-75
2022/05/06 08:24:28;;;;;;;4.08;2.10;;;;;;;16.28;25.57;100670.73;1732459;82;20999;-75
2022/05/06 08:26:56;;;;;;;5.83;2.30;;;;;;;16.34;25.87;100671.83;1732524;82;21920;-75
2022/05/06 08:29:22;;;;;;;3.90;2.37;;;;;;;16.41;25.22;100671.56;1732770;82;21137;-76
2022/05/06 08:31:50;;;;;;;6.53;2.10;;;;;;;16.37;25.79;100665.52;1732313;82;21105;-75
2022/05/06 08:34:18;;;;;;;4.55;2.45;;;;;;;16.45;26.12;100671.86;1732203;82;21529;-75
2022/05/06 08:36:44;;;;;;;6.78;2.02;;;;;;;16.57;26.31;100672.67;1732552;82;21093;-75
2022/05/06 08:39:14;;;;;;;6.87;1.65;;;;;;;16.75;25.54;100667.55;1732298;82;20994;-75
2022/05/06 08:41:41;;;;;;;2.70;1.77;;;;;;;16.88;25.68;100666.14;1739188;81;21082;-75
2022/05/06 08:52:35;;;;;;;3.17;1.37;;;;;;;17.29;24.25;100663.94;1753535;81;21001;-75
2022/05/06 08:55:02;;;;;;;4.50;1.40;;;;;;;17.35;24.05;100652.56;1753292;81;21079;-76
2022/05/06 08:57:29;;;;;;;6.78;1.95;;;;;;;17.42;24.23;100647.83;1753723;81;21000;-76
2022/05/06 08:59:56;;;;;;;8.00;1.87;;;;;;;17.52;24.02;100650.95;1753494;81;21128;-76
2022/05/06 09:02:23;;;;;;;3.25;1.57;;;;;;;17.56;24.15;100640.07;1753397;81;21594;-77
2022/05/06 09:04:50;;;;;;;3.65;1.70;;;;;;;17.60;24.13;100631.48;1753703;81;21173;-76
2022/05/06 09:07:21;;;;;;;3.55;2.27;;;;;;;17.70;24.44;100635.91;1753478;81;21078;-77
2022/05/06 09:10:15;;;;;;;4.45;2.20;;;;;;;17.77;24.35;100630.25;1753651;81;21058;-76
2022/05/06 09:12:45;;;;;;;2.95;1.82;;;;;;;17.90;24.57;100628.36;1753589;81;22217;-75
2022/05/06 09:18:02;;;;;;;4.47;1.77;;;;;;;18.09;23.95;100619.90;1753461;81;20956;-76
2022/05/06 09:20:30;;;;;;;6.50;1.80;;;;;;;18.12;23.40;100627.75;1753659;81;21102;-76
2022/05/06 09:22:57;;;;;;;1.75;1.65;;;;;;;18.14;23.62;100621.87;1753532;81;21075;-76
2022/05/06 09:25:55;;;;;;;2.60;1.90;;;;;;;18.14;23.46;100613.87;1753826;81;22137;-76
2022/05/06 09:28:27;;;;;;;2.45;1.72;;;;;;;18.15;23.63;100616.92;1751950;81;21000;-76
2022/05/06 09:31:03;;;;;;;7.10;2.17;;;;;;;18.24;23.83;100620.08;1754008;81;21648;-76
2022/05/06 09:33:31;;;;;;;2.55;1.90;;;;;;;18.33;24.09;100616.97;1753831;81;21007;-76
2022/05/06 09:35:58;;;;;;;6.53;1.80;;;;;;;18.46;23.36;100620.76;1753367;81;21114;-76
2022/05/06 09:38:25;;;;;;;6.78;2.35;;;;;;;18.47;22.93;100612.28;1753348;81;21504;-77
2022/05/06 09:40:52;;;;;;;4.05;1.87;;;;;;;18.42;23.59;100607.17;1752621;80;21070;-73
2022/05/06 09:43:19;;;;;;;2.75;1.45;;;;;;;18.48;23.69;100608.22;1696835;83;21545;-74
2022/05/06 09:45:47;;;;;;;2.12;1.57;;;;;;;18.60;23.50;100608.06;1719476;83;22297;-74
2022/05/06 09:48:14;;;;;;;6.45;1.70;;;;;;;18.71;23.62;100619.05;1719817;83;20994;-73
2022/05/06 09:50:45;;;;;;;4.22;1.75;;;;;;;18.82;23.30;100610.97;1719342;83;21306;-75
2022/05/06 09:53:14;;;;;;;2.12;1.62;;;;;;;18.94;23.59;100613.03;1719368;83;21090;-76
2022/05/06 09:55:47;;;;;;;5.35;1.60;;;;;;;19.07;23.48;100610.59;1719535;83;21623;-76
2022/05/06 09:58:14;;;;;;;7.97;1.90;;;;;;;19.17;23.20;100610.50;1719484;83;21482;-73
2022/05/06 10:00:40;;;;;;;4.47;1.77;;;;;;;19.20;22.64;100614.34;1718681;82;21041;-75
2022/05/06 10:03:09;;;;;;;1.62;1.50;;;;;;;19.17;22.86;100609.16;1719768;83;21104;-74
2022/05/06 10:05:37;;;;;;;6.37;1.90;;;;;;;19.16;23.17;100611.42;1719466;83;21046;-73
2022/05/06 10:08:09;;;;;;;5.83;1.47;;;;;;;19.18;22.84;100608.23;1719839;83;21113;-74
2022/05/06 10:10:40;;;;;;;2.55;1.62;;;;;;;19.20;23.10;100601.00;1719691;83;21085;-75
2022/05/06 10:13:19;;;;;;;3.42;1.60;;;;;;;19.27;23.28;100602.39;1718976;83;21137;-74
2022/05/06 10:15:49;;;;;;;6.35;1.77;;;;;;;19.40;23.56;100611.05;1719657;83;21209;-74
2022/05/06 10:18:35;;;;;;;2.17;1.70;;;;;;;19.47;22.81;100613.81;1719740;83;21645;-74
2022/05/06 10:21:08;;;;;;;3.95;1.67;;;;;;;19.46;22.58;100609.41;1719752;83;21553;-74
2022/05/06 10:23:52;;;;;;;4.70;1.70;;;;;;;19.46;22.90;100604.92;1723669;82;21573;-74
2022/05/06 10:26:40;;;;;;;8.30;1.62;;;;;;;19.49;22.53;100596.75;1732195;82;21105;-74
2022/05/06 10:35:05;;;;;;;2.62;1.70;;;;;;;19.48;23.80;100595.50;1732441;82;22102;-73
2022/05/06 10:37:43;;;;;;;3.75;1.40;;;;;;;19.56;23.38;100593.75;1724056;82;20998;-74
2022/05/06 10:40:30;;;;;;;3.70;1.52;;;;;;;19.64;23.59;100575.02;1732126;82;21663;-76
2022/05/06 10:42:58;;;;;;;4.00;1.70;;;;;;;19.80;23.54;100575.53;1732067;82;22199;-73
2022/05/06 10:45:33;;;;;;;4.22;1.80;;;;;;;19.95;23.27;100584.49;1731774;82;21688;-74
2022/05/06 10:48:00;;;;;;;7.72;1.55;;;;;;;20.04;22.79;100582.16;1732291;82;21058;-74
2022/05/06 10:50:38;;;;;;;10.08;2.40;;;;;;;20.16;22.84;100572.58;1732150;82;21169;-74
2022/05/06 10:53:05;;;;;;;4.15;1.65;;;;;;;20.09;21.60;100574.34;1732321;82;21137;-74
2022/05/06 10:55:32;;;;;;;6.30;1.92;;;;;;;19.94;22.07;100576.96;1732223;82;21142;-73
2022/05/06 10:58:01;;;;;;;4.70;1.80;;;;;;;19.91;22.28;100575.80;1732024;82;20998;-74
2022/05/06 11:00:29;;;;;;;8.73;1.80;;;;;;;19.91;22.19;100574.45;1731962;82;21101;-73
2022/05/06 11:02:58;;;;;;;9.03;1.62;;;;;;;19.86;21.40;100565.84;1732197;82;21415;-74
2022/05/06 11:05:25;;;;;;;4.33;1.57;;;;;;;19.65;22.01;100564.75;1732287;82;20999;-74
2022/05/06 11:07:55;;;;;;;5.65;1.95;;;;;;;19.62;22.97;100555.56;1732860;82;21118;-73
2022/05/06 11:10:25;;;;;;;6.55;2.00;;;;;;;19.77;22.73;100555.22;1732103;82;21085;-74
2022/05/06 11:12:57;;;;;;;8.15;1.60;;;;;;;19.96;22.64;100543.48;1732628;82;21006;-73
2022/05/06 11:15:31;;;;;;;3.42;1.60;;;;;;;20.13;23.47;100550.05;1732014;82;21031;-74
2022/05/06 11:18:01;;;;;;;;;;;;;;;20.34;22.72;100545.72;1734788;82;21030;-73
2022/05/06 11:20:36;;;;;;;5.47;1.50;;;;;;;20.48;22.05;100543.11;1731710;82;21156;-73
2022/05/06 11:23:11;;;;;;;11.88;1.98;;;;;;;20.57;20.53;100531.84;1731871;82;20980;-74
2022/05/06 11:25:45;;;;;;;4.35;1.70;;;;;;;20.37;20.93;100534.86;1731533;82;21074;-74
2022/05/06 11:28:23;;;;;;;3.33;1.57;;;;;;;20.21;21.84;100529.56;1732049;82;21074;-74
2022/05/06 11:30:51;;;;;;;2.90;1.85;;;;;;;20.28;21.90;100535.41;1732097;82;22630;-74
2022/05/06 11:33:27;;;;;;;2.65;1.75;;;;;;;20.39;21.88;100531.16;1731944;82;22317;-73
2022/05/06 11:36:01;;;;;;;4.00;1.85;;;;;;;20.57;22.37;100526.50;1728455;82;20999;-73
2022/05/06 11:38:35;;;;;;;6.40;1.55;;;;;;;20.78;22.03;100524.38;1731540;82;21161;-74
2022/05/06 11:41:13;;;;;;;2.65;1.45;;;;;;;20.91;20.49;100528.97;1732016;82;21501;-73
2022/05/06 11:43:41;;;;;;;2.92;1.52;;;;;;;20.91;20.79;100522.28;1740397;82;21576;-74
2022/05/06 11:49:05;;;;;;;6.75;2.05;;;;;;;20.90;21.05;100516.08;1743978;82;21083;-74
2022/05/06 11:51:40;;;;;;;2.37;1.47;;;;;;;20.93;20.69;100516.34;1751201;81;21103;-73
2022/05/06 11:54:06;;;;;;;4.37;1.80;;;;;;;20.97;20.49;100509.88;1752732;81;22012;-73
2022/05/06 11:56:33;;;;;;;5.20;1.67;;;;;;;21.07;20.68;100507.48;1728810;81;22167;-73
2022/05/06 11:59:00;;;;;;;13.13;1.85;;;;;;;21.15;20.33;100499.84;1752553;81;22435;-73
2022/05/06 12:01:29;;;;;;;3.05;1.50;;;;;;;21.12;20.32;100494.19;1752511;81;21044;-73
2022/05/06 12:04:02;;;;;;;3.70;1.90;;;;;;;21.10;20.81;100488.08;1752452;81;21139;-74
2022/05/06 12:06:30;;;;;;;2.90;1.75;;;;;;;21.13;20.68;100495.92;1752126;81;21080;-74
2022/05/06 12:09:17;;;;;;;3.10;1.62;;;;;;;21.20;20.73;100491.05;1752791;81;22298;-75
2022/05/06 12:11:44;;;;;;;2.95;1.55;;;;;;;21.30;20.15;100492.62;1752548;81;21151;-74
2022/05/06 12:14:17;;;;;;;6.15;1.80;;;;;;;21.15;19.65;100488.65;1752556;81;20997;-73
2022/05/06 12:16:58;;;;;;;4.92;1.72;;;;;;;21.09;20.62;100488.17;1752512;81;21571;-74